createdAt,value
2023-03-17T00:04:31.045Z,6.58
2023-03-17T00:09:27.564Z,6.62
2023-03-17T00:14:24.112Z,6.69
2023-03-17T00:20:34.870Z,6.72
2023-03-17T00:25:31.262Z,6.7
2023-03-17T00:30:27.829Z,6.73
2023-03-17T00:36:38.649Z,6.7
2023-03-17T00:41:35.083Z,6.67
2023-03-17T00:46:31.568Z,6.72
2023-03-17T00:51:28.180Z,6.72
2023-03-17T00:56:24.734Z,6.71
2023-03-17T01:02:35.296Z,6.81
2023-03-17T01:07:31.816Z,6.79
2023-03-17T01:12:28.424Z,6.71
2023-03-17T01:17:24.936Z,6.72
2023-03-17T01:23:35.632Z,6.73
2023-03-17T01:28:32.098Z,6.73
2023-03-17T01:33:28.611Z,6.69
2023-03-17T01:38:25.182Z,6.71
2023-03-17T01:44:35.869Z,6.8
2023-03-17T01:49:32.416Z,6.81
2023-03-17T01:54:28.874Z,6.77
2023-03-17T01:59:25.422Z,6.81
2023-03-17T02:05:36.079Z,6.77
2023-03-17T02:10:32.929Z,6.81
2023-03-17T02:15:29.127Z,6.76
2023-03-17T02:20:25.754Z,6.76
2023-03-17T02:26:36.339Z,6.83
2023-03-17T02:31:32.890Z,6.86
2023-03-17T02:36:29.465Z,6.81
2023-03-17T02:47:36.605Z,6.88
2023-03-17T02:52:33.177Z,6.88
2023-03-17T02:57:29.709Z,6.84
2023-03-17T03:08:36.851Z,6.83
2023-03-17T03:13:33.389Z,6.81
2023-03-17T03:18:29.930Z,6.77
2023-03-17T03:23:26.449Z,6.83
2023-03-17T03:29:37.135Z,6.91
2023-03-17T03:34:33.726Z,6.82
2023-03-17T03:39:30.164Z,6.79
2023-03-17T03:44:26.759Z,6.71
2023-03-17T03:50:37.404Z,6.71
2023-03-17T03:55:33.924Z,6.69
2023-03-17T04:00:30.706Z,6.73
2023-03-17T04:05:26.994Z,6.75
2023-03-17T04:11:37.633Z,6.71
2023-03-17T04:16:34.247Z,6.74
2023-03-17T04:21:30.725Z,6.77
2023-03-17T04:26:27.241Z,6.78
2023-03-17T04:31:23.896Z,6.79
2023-03-17T04:37:34.775Z,6.82
2023-03-17T04:42:30.957Z,6.76
2023-03-17T04:47:27.513Z,6.83
2023-03-17T04:52:24.080Z,6.76
2023-03-17T04:58:34.712Z,6.75
2023-03-17T05:03:31.225Z,6.7
2023-03-17T05:08:27.774Z,6.79
2023-03-17T05:13:24.306Z,6.83
2023-03-17T05:19:35.008Z,6.83
2023-03-17T05:24:31.467Z,6.73
2023-03-17T05:29:28.111Z,6.82
2023-03-17T05:34:24.656Z,6.76
2023-03-17T05:40:35.294Z,6.75
2023-03-17T05:45:31.757Z,6.69
2023-03-17T05:50:28.421Z,6.68
2023-03-17T05:55:24.840Z,6.61
2023-03-17T06:01:35.478Z,6.58
2023-03-17T06:06:32.005Z,6.6
2023-03-17T06:11:28.643Z,6.62
2023-03-17T06:16:25.133Z,6.61
2023-03-17T06:22:35.776Z,6.61
2023-03-17T06:27:32.404Z,6.58
2023-03-17T06:32:28.893Z,6.49
2023-03-17T06:37:25.379Z,6.46
2023-03-17T06:43:36.008Z,6.34
2023-03-17T06:48:32.607Z,6.4
2023-03-17T06:53:29.089Z,6.34
2023-03-17T06:58:25.721Z,6.32
2023-03-17T07:04:36.288Z,6.3
2023-03-17T07:09:32.834Z,6.25
2023-03-17T07:14:29.331Z,6.26
2023-03-17T07:19:25.872Z,6.23
2023-03-17T07:25:36.520Z,6.25
2023-03-17T07:30:33.073Z,6.14
2023-03-17T07:35:30.038Z,6.2
2023-03-17T07:40:26.146Z,6.19
2023-03-17T07:46:36.791Z,6.18
2023-03-17T07:51:33.425Z,6.08
2023-03-17T07:56:29.841Z,6.14
2023-03-17T08:01:26.443Z,6.1
2023-03-17T08:07:37.125Z,6.22
2023-03-17T08:12:33.676Z,6.12
2023-03-17T08:17:30.099Z,6.06
2023-03-17T08:22:26.715Z,6.06
2023-03-17T08:28:37.343Z,6.17
2023-03-17T08:33:33.917Z,6.2
2023-03-17T08:38:30.380Z,6.3
2023-03-17T08:43:26.918Z,6.27
2023-03-17T08:49:37.600Z,6.27
2023-03-17T08:54:34.209Z,6.34
2023-03-17T08:59:30.634Z,6.3
2023-03-17T09:04:27.185Z,6.37
2023-03-17T09:09:23.864Z,6.22
2023-03-17T09:15:34.547Z,6.32
2023-03-17T09:20:31.169Z,6.22
2023-03-17T09:25:27.427Z,6.34
2023-03-17T09:31:38.252Z,6.2
2023-03-17T09:36:34.719Z,6.33
2023-03-17T09:41:31.149Z,5.99
2023-03-17T09:45:13.671Z,6.36
2023-03-17T09:46:27.771Z,6.38
2023-03-17T09:52:38.382Z,6.31
2023-03-17T09:57:34.966Z,6.25
2023-03-17T10:02:31.521Z,6.31
2023-03-17T10:07:27.979Z,6.46
2023-03-17T10:12:24.509Z,6.4
2023-03-17T10:18:35.191Z,6.3
2023-03-17T10:28:28.328Z,6.4
2023-03-17T10:33:24.801Z,6.57
2023-03-17T10:39:35.518Z,6.61
2023-03-17T10:44:32.010Z,6.42
2023-03-17T10:49:28.482Z,6.45
2023-03-17T10:54:25.014Z,6.54
2023-03-17T11:00:35.747Z,6.68
2023-03-17T11:05:32.244Z,6.59
2023-03-17T11:10:29.332Z,6.69
2023-03-17T11:15:25.308Z,6.6
2023-03-17T11:21:35.954Z,6.43
2023-03-17T11:26:32.553Z,6.64
2023-03-17T11:31:29.144Z,6.63
2023-03-17T11:36:25.567Z,6.66
2023-03-17T11:42:36.227Z,6.78
2023-03-17T11:47:32.793Z,6.8
2023-03-17T11:52:29.342Z,6.52
2023-03-17T11:57:25.805Z,6.84
2023-03-17T12:03:36.520Z,6.83
2023-03-17T12:08:33.013Z,6.74
2023-03-17T12:13:29.578Z,6.87
2023-03-17T12:18:26.095Z,6.9
2023-03-17T12:24:36.743Z,7.06
2023-03-17T12:29:33.372Z,6.89
2023-03-17T12:34:29.799Z,6.93
2023-03-17T12:39:26.363Z,7.03
2023-03-17T12:45:37.023Z,6.92
2023-03-17T12:50:33.610Z,6.97
2023-03-17T12:55:30.413Z,7.13
2023-03-17T13:00:26.612Z,7.02
2023-03-17T13:06:37.263Z,7.1
2023-03-17T13:11:33.872Z,7.19
2023-03-17T13:16:30.399Z,7.09
2023-03-17T13:21:26.884Z,7.16
2023-03-17T13:27:37.551Z,7.17
2023-03-17T13:32:34.221Z,6.97
2023-03-17T13:37:30.586Z,6.69
2023-03-17T13:42:27.132Z,7.02
2023-03-17T13:48:37.979Z,7.31
2023-03-17T13:53:34.412Z,7.31
2023-03-17T13:58:30.853Z,7.02
2023-03-17T14:03:27.508Z,7.19
2023-03-17T14:09:38.106Z,7.18
2023-03-17T14:14:34.588Z,7.06
2023-03-17T14:19:31.149Z,6.69
2023-03-17T14:24:27.674Z,6.77
2023-03-17T14:29:24.205Z,6.72
2023-03-17T14:35:35.305Z,6.83
2023-03-17T14:40:31.389Z,6.7
2023-03-17T14:45:27.941Z,6.75
2023-03-17T14:50:24.548Z,6.6
2023-03-17T14:56:35.247Z,6.62
2023-03-17T15:06:28.201Z,6.78
2023-03-17T15:11:24.806Z,6.58
2023-03-17T15:17:35.467Z,6.69
2023-03-17T15:22:31.921Z,6.74
2023-03-17T15:27:28.469Z,6.63
2023-03-17T15:38:35.731Z,6.67
2023-03-17T15:43:32.188Z,6.65
2023-03-17T15:48:28.714Z,6.67
2023-03-17T15:53:25.365Z,6.62
2023-03-17T15:59:35.972Z,6.65
2023-03-17T16:04:32.583Z,6.56
2023-03-17T16:09:29.050Z,6.6
2023-03-17T16:14:25.639Z,6.73
2023-03-17T16:20:36.272Z,6.66
2023-03-17T16:25:32.709Z,6.72
2023-03-17T16:30:29.891Z,6.76
2023-03-17T16:35:25.852Z,6.72
2023-03-17T16:41:36.525Z,6.79
2023-03-17T16:46:34.828Z,6.86
2023-03-17T16:51:29.630Z,6.99
2023-03-17T16:56:26.119Z,6.88
2023-03-17T17:02:36.826Z,6.86
2023-03-17T17:07:33.270Z,6.89
2023-03-17T17:12:29.829Z,6.9
2023-03-17T17:17:26.399Z,6.82
2023-03-17T17:23:37.082Z,6.78
2023-03-17T17:28:33.544Z,6.75
2023-03-17T17:33:30.090Z,6.75
2023-03-17T17:38:26.670Z,6.69
2023-03-17T17:44:37.309Z,6.74
2023-03-17T17:49:33.883Z,6.68
2023-03-17T17:54:30.311Z,6.71
2023-03-17T17:59:26.852Z,6.7
2023-03-17T18:05:37.524Z,6.74
2023-03-17T18:10:34.581Z,6.75
2023-03-17T18:15:30.586Z,6.76
2023-03-17T18:20:27.246Z,6.83
2023-03-17T18:26:37.774Z,6.92
2023-03-17T18:31:34.439Z,7.59
2023-03-17T18:36:30.829Z,8.05
2023-03-17T18:41:27.477Z,8.65
2023-03-17T18:47:38.051Z,9.69
2023-03-17T18:52:34.623Z,9.54
2023-03-17T18:57:31.137Z,9.5
2023-03-17T19:02:27.712Z,9.43
2023-03-17T19:07:24.219Z,9.32
2023-03-17T19:13:34.953Z,9.68
2023-03-17T19:18:31.352Z,10.21
2023-03-17T19:23:27.914Z,10.39
2023-03-17T19:28:24.493Z,10.32
2023-03-17T19:34:35.210Z,10.26
2023-03-17T19:39:31.631Z,10.26
2023-03-17T19:44:28.188Z,10.2
2023-03-17T19:49:24.748Z,10.13
2023-03-17T19:55:35.411Z,10.13
2023-03-17T20:00:32.226Z,10.07
2023-03-17T20:05:28.525Z,10.13
2023-03-17T20:16:36.031Z,10.13
2023-03-17T20:21:32.155Z,10.26
2023-03-17T20:26:28.761Z,10.26
2023-03-17T20:31:25.339Z,10.2
2023-03-17T20:37:36.038Z,10.07
2023-03-17T20:42:32.461Z,10.07
2023-03-17T20:47:29.016Z,10.07
2023-03-17T20:52:25.558Z,9.94
2023-03-17T20:58:36.234Z,9.94
2023-03-17T21:03:32.714Z,10.07
2023-03-17T21:08:29.236Z,10.07
2023-03-17T21:13:25.797Z,10
2023-03-17T21:19:36.481Z,10
2023-03-17T21:24:32.982Z,10
2023-03-17T21:29:29.592Z,9.94
2023-03-17T21:40:36.808Z,9.88
2023-03-17T21:45:33.317Z,9.82
2023-03-17T21:50:29.831Z,9.88
2023-03-17T21:55:26.378Z,9.88
2023-03-17T22:01:37.193Z,9.76
2023-03-17T22:06:33.504Z,9.63
2023-03-17T22:11:30.043Z,9.69
2023-03-17T22:16:26.636Z,9.51
2023-03-17T22:22:37.271Z,9.63
2023-03-17T22:27:33.760Z,9.57
2023-03-17T22:32:30.369Z,9.51
2023-03-17T22:37:26.941Z,9.45
2023-03-17T22:43:37.555Z,9.51
2023-03-17T22:48:34.028Z,9.57
2023-03-17T22:53:30.552Z,9.51
2023-03-17T22:58:27.101Z,9.57
2023-03-17T23:04:37.895Z,9.51
2023-03-17T23:09:34.349Z,9.51
2023-03-17T23:14:30.843Z,9.45
2023-03-17T23:19:27.430Z,9.45
2023-03-17T23:25:38.119Z,9.57
2023-03-17T23:30:35.176Z,9.51
2023-03-17T23:35:31.130Z,9.39
2023-03-17T23:40:27.649Z,9.39
2023-03-17T23:46:38.338Z,9.45
2023-03-17T23:51:34.834Z,9.45
2023-03-17T23:56:31.377Z,9.39
